Time;durP1;ratioP1;P1;durP2;ratioP2;P2;SDS_P1;SDS_P2;PMS_P1;PMS_P2;Temp;Humidity;BMP_temperature;BMP_pressure;BME280_temperature;BME280_humidity;BME280_pressure;Samples;Min_cycle;Max_cycle;Signal;HPM_P1;HPM_P2
2022/01/19 00:01:48;;;;;;;25.40;12.30;;;;;;;-3.42;82.24;98191.70;107450;1269;44640;-73
2022/01/19 00:04:19;;;;;;;29.60;13.70;;;;;;;-3.42;82.36;98195.48;107451;1270;47152;-73
2022/01/19 00:06:49;;;;;;;28.10;11.80;;;;;;;-3.42;82.43;98189.05;107471;1269;40130;-73
2022/01/19 00:09:20;;;;;;;30.60;14.40;;;;;;;-3.43;82.39;98192.60;107454;1269;45360;-73
2022/01/19 00:11:51;;;;;;;24.20;11.80;;;;;;;-3.42;82.53;98180.48;107298;1271;42131;-73
2022/01/19 00:14:22;;;;;;;22.20;12.70;;;;;;;-3.41;82.61;98179.81;107350;1271;45009;-72
2022/01/19 00:16:53;;;;;;;37.00;14.60;;;;;;;-3.42;82.60;98171.15;107464;1269;39585;-73
2022/01/19 00:19:23;;;;;;;32.20;16.10;;;;;;;-3.46;82.74;98167.70;107480;1270;46621;-73
2022/01/19 00:21:54;;;;;;;42.70;15.30;;;;;;;-3.46;82.67;98179.14;107502;1270;51304;-73
2022/01/19 00:24:25;;;;;;;23.80;11.90;;;;;;;-3.48;82.69;98177.38;107401;1269;32953;-73
2022/01/19 00:26:57;;;;;;;28.20;14.20;;;;;;;-3.46;82.78;98176.25;107504;1270;41732;-73
2022/01/19 00:29:28;;;;;;;34.50;16.70;;;;;;;-3.48;82.58;98174.45;107518;1269;34623;-73
2022/01/19 00:31:59;;;;;;;26.20;14.70;;;;;;;-3.49;82.79;98173.25;107467;1270;33287;-73
2022/01/19 00:34:30;;;;;;;24.70;13.90;;;;;;;-3.48;82.90;98174.65;107399;1269;42029;-73
2022/01/19 00:37:00;;;;;;;25.20;13.40;;;;;;;-3.47;82.76;98177.34;107372;1270;41752;-73
2022/01/19 00:39:33;;;;;;;23.70;11.30;;;;;;;-3.46;82.90;98187.44;107482;1269;34901;-73
2022/01/19 00:42:04;;;;;;;30.80;17.80;;;;;;;-3.42;82.83;98194.42;107454;1270;38770;-72
2022/01/19 00:44:38;;;;;;;34.60;10.30;;;;;;;-3.39;82.84;98193.09;107498;1270;36713;-73
2022/01/19 00:47:10;;;;;;;24.80;11.50;;;;;;;-3.39;82.75;98195.38;107472;1269;40473;-73
2022/01/19 00:49:42;;;;;;;20.70;11.90;;;;;;;-3.38;82.82;98186.95;107493;1269;34311;-73
2022/01/19 00:52:14;;;;;;;24.50;12.70;;;;;;;-3.35;82.90;98189.44;107416;1269;39918;-72
2022/01/19 00:54:44;;;;;;;24.70;12.50;;;;;;;-3.31;82.88;98188.35;107410;1269;43075;-73
2022/01/19 00:57:15;;;;;;;27.60;12.70;;;;;;;-3.29;83.03;98182.75;107499;1270;34484;-73
2022/01/19 00:59:46;;;;;;;24.60;13.20;;;;;;;-3.27;82.86;98190.67;107456;1270;43204;-73
2022/01/19 01:02:17;;;;;;;24.20;11.30;;;;;;;-3.24;82.90;98192.96;107477;1269;44241;-73
2022/01/19 01:04:47;;;;;;;24.30;12.20;;;;;;;-3.16;83.07;98181.48;107523;1269;43293;-73
2022/01/19 01:07:18;;;;;;;28.20;14.30;;;;;;;-3.14;82.80;98200.77;107449;1270;38488;-73
2022/01/19 01:09:49;;;;;;;25.20;12.60;;;;;;;-3.13;82.76;98195.73;107406;1269;47528;-73
2022/01/19 01:12:26;;;;;;;18.80;9.30;;;;;;;-3.11;82.78;98184.75;107447;1270;31765;-73
2022/01/19 01:20:37;;;;;;;18.90;9.10;;;;;;;-3.07;82.52;98156.92;107510;1270;32249;-73
2022/01/19 01:23:10;;;;;;;25.60;8.70;;;;;;;-3.08;82.69;98162.86;107414;1269;39787;-74
2022/01/19 01:25:43;;;;;;;21.70;10.10;;;;;;;-3.06;82.73;98163.16;107452;1269;57767;-73
2022/01/19 01:28:14;;;;;;;24.60;10.60;;;;;;;-3.05;82.62;98161.12;107426;1269;38581;-73
2022/01/19 01:30:46;;;;;;;21.00;9.90;;;;;;;-3.03;82.66;98157.98;107419;1270;33546;-73
2022/01/19 01:33:17;;;;;;;22.50;9.60;;;;;;;-3.01;82.75;98154.48;107452;1270;30148;-73
2022/01/19 01:35:48;;;;;;;28.60;12.40;;;;;;;-2.96;82.72;98150.41;107464;1270;34963;-73
2022/01/19 01:38:19;;;;;;;19.30;10.60;;;;;;;-2.93;82.57;98143.90;107373;1269;38415;-73
2022/01/19 01:40:50;;;;;;;25.10;9.90;;;;;;;-2.91;82.64;98142.16;107462;1269;41544;-73
2022/01/19 01:43:21;;;;;;;21.60;9.00;;;;;;;-2.90;82.60;98132.20;107508;1270;43066;-73
2022/01/19 01:45:59;;;;;;;19.30;8.40;;;;;;;-2.92;82.54;98135.64;107500;1270;32144;-73
2022/01/19 01:48:30;;;;;;;15.80;8.30;;;;;;;-2.92;82.58;98128.77;107395;1269;44979;-73
2022/01/19 01:53:49;;;;;;;19.10;9.20;;;;;;;-2.87;82.45;98096.92;107512;1270;30522;-73
2022/01/19 01:56:20;;;;;;;16.50;7.90;;;;;;;-2.87;82.50;98103.12;107380;1269;40276;-73
2022/01/19 01:58:52;;;;;;;24.70;8.80;;;;;;;-2.87;82.26;98101.08;107367;1269;47122;-73
2022/01/19 02:01:22;;;;;;;12.70;6.60;;;;;;;-2.88;82.39;98101.39;107373;1269;40084;-73
2022/01/19 02:03:56;;;;;;;16.80;6.60;;;;;;;-2.88;82.29;98105.19;107455;1269;40544;-73
2022/01/19 02:06:48;;;;;;;16.30;7.80;;;;;;;-2.90;82.49;98110.56;107466;1269;34347;-73
2022/01/19 02:09:22;;;;;;;23.90;7.60;;;;;;;-2.92;82.44;98111.35;107408;1269;42055;-73
2022/01/19 02:23:21;;;;;;;21.00;8.70;;;;;;;-3.02;82.52;98098.77;107433;1269;39960;-73
2022/01/19 02:25:54;;;;;;;17.40;8.10;;;;;;;-3.01;82.51;98096.20;107477;1269;39271;-73
2022/01/19 02:31:50;;;;;;;12.40;6.90;;;;;;;-3.03;82.38;98090.70;107488;1269;39044;-73
2022/01/19 02:40:13;;;;;;;13.60;8.00;;;;;;;-3.11;81.87;98071.71;107428;1269;41483;-73
2022/01/19 02:43:03;;;;;;;15.20;8.00;;;;;;;-3.21;81.80;98066.73;107505;1268;36609;-73
2022/01/19 02:51:11;;;;;;;16.30;7.60;;;;;;;-3.37;81.87;98062.21;107196;1271;360065;-73
2022/01/19 02:53:42;;;;;;;21.90;8.90;;;;;;;-3.35;81.90;98061.38;107519;1270;30204;-73
2022/01/19 02:56:19;;;;;;;18.80;9.70;;;;;;;-3.38;81.75;98056.92;107472;1269;44554;-73
2022/01/19 02:58:57;;;;;;;15.60;7.80;;;;;;;-3.39;81.72;98044.52;107506;1270;36696;-73
2022/01/19 03:10:00;;;;;;;17.70;8.50;;;;;;;-3.46;81.77;98016.98;107445;1269;44727;-73
2022/01/19 03:12:31;;;;;;;15.70;7.40;;;;;;;-3.45;82.03;98021.07;107419;1269;39719;-73
2022/01/19 03:15:02;;;;;;;16.60;7.40;;;;;;;-3.42;81.79;98013.63;107561;1269;40089;-73
2022/01/19 03:17:33;;;;;;;18.20;7.00;;;;;;;-3.46;81.66;98009.60;107494;1269;38279;-72
2022/01/19 03:20:05;;;;;;;13.50;6.60;;;;;;;-3.47;81.76;98009.50;107453;1270;36995;-73
2022/01/19 03:22:40;;;;;;;18.40;7.30;;;;;;;-3.47;81.95;98009.20;107516;1269;42489;-72
2022/01/19 03:25:13;;;;;;;15.20;7.30;;;;;;;-3.49;81.79;98011.83;107369;1271;41461;-73
2022/01/19 03:27:47;;;;;;;16.40;7.10;;;;;;;-3.51;81.68;98014.63;107433;1269;35902;-73
2022/01/19 03:30:20;;;;;;;19.50;9.10;;;;;;;-3.56;81.53;98014.95;107419;1269;39380;-73
2022/01/19 03:32:51;;;;;;;22.80;9.30;;;;;;;-3.63;81.41;98014.90;107403;1270;41913;-72
2022/01/19 03:35:22;;;;;;;15.20;8.20;;;;;;;-3.69;81.36;98018.09;107485;1270;36675;-72
2022/01/19 03:37:53;;;;;;;17.80;9.60;;;;;;;-3.73;81.38;98014.89;107380;1270;53105;-72
2022/01/19 03:40:24;;;;;;;16.30;8.60;;;;;;;-3.78;81.30;98015.08;107399;1270;43483;-72
2022/01/19 03:42:55;;;;;;;20.60;10.20;;;;;;;-3.84;81.07;98013.40;107388;1271;35882;-72
2022/01/19 03:45:26;;;;;;;17.60;8.30;;;;;;;-3.92;81.14;98011.63;107385;1267;44748;-72
2022/01/19 03:48:09;;;;;;;15.80;9.50;;;;;;;-3.97;80.94;98012.25;107430;1269;39063;-73
2022/01/19 03:50:40;;;;;;;19.50;10.30;;;;;;;-4.01;80.88;97997.47;107476;1269;41971;-73
2022/01/19 03:53:11;;;;;;;20.60;10.40;;;;;;;-4.06;80.78;97990.09;107447;1270;37266;-73
2022/01/19 03:55:42;;;;;;;20.70;10.10;;;;;;;-4.14;80.87;97998.77;107524;1270;37877;-72
2022/01/19 03:58:12;;;;;;;19.00;9.70;;;;;;;-4.18;80.92;97998.81;107507;1270;34129;-72
2022/01/19 04:00:45;;;;;;;10.40;6.10;;;;;;;-4.21;81.38;97995.33;107479;1269;42720;-73
2022/01/19 04:03:20;;;;;;;16.40;8.70;;;;;;;-4.13;81.67;97985.54;107523;1269;36839;-72
2022/01/19 04:05:58;;;;;;;13.20;6.20;;;;;;;-4.04;81.99;97979.48;107445;1269;38164;-72
2022/01/19 04:08:29;;;;;;;12.90;5.50;;;;;;;-3.94;81.83;97972.81;107390;1269;44302;-72
2022/01/19 04:11:00;;;;;;;19.30;7.20;;;;;;;-3.95;81.84;97976.15;107334;1271;41198;-72
2022/01/19 04:13:44;;;;;;;17.80;8.50;;;;;;;-3.95;81.74;97974.77;107445;1269;34858;-72
2022/01/19 04:16:15;;;;;;;14.60;7.10;;;;;;;-3.99;81.51;97972.13;107424;1269;42008;-72
2022/01/19 04:18:46;;;;;;;19.90;11.20;;;;;;;-4.06;81.37;97965.00;107472;1269;33344;-72
2022/01/19 04:21:17;;;;;;;20.70;10.80;;;;;;;-4.19;81.21;97964.56;107514;1270;36124;-73
2022/01/19 04:23:49;;;;;;;14.40;7.90;;;;;;;-4.32;81.10;97965.89;107440;1269;45939;-73
2022/01/19 04:26:19;;;;;;;19.60;9.40;;;;;;;-4.41;81.08;97967.98;107444;1269;41343;-72
2022/01/19 04:28:50;;;;;;;18.50;9.50;;;;;;;-4.45;81.51;97964.63;107341;1269;41088;-72
2022/01/19 04:31:21;;;;;;;20.80;11.30;;;;;;;-4.48;81.65;97960.39;107432;1270;38445;-72
2022/01/19 04:33:52;;;;;;;21.10;10.80;;;;;;;-4.52;81.58;97956.90;107397;1270;35495;-72
2022/01/19 04:36:30;;;;;;;20.20;10.70;;;;;;;-4.56;81.69;97947.88;107466;1270;34902;-72
2022/01/19 04:39:25;;;;;;;26.40;10.20;;;;;;;-4.61;81.72;97947.83;107417;1269;38390;-72
2022/01/19 04:45:00;;;;;;;22.70;10.10;;;;;;;-4.73;81.76;97942.02;107488;1269;34074;-73
2022/01/19 05:01:51;;;;;;;17.10;11.10;;;;;;;-4.91;82.13;97942.16;107228;1271;45121;-73
2022/01/19 05:04:31;;;;;;;25.20;9.80;;;;;;;-4.95;82.09;97932.51;107450;1269;36417;-73
2022/01/19 05:07:14;;;;;;;24.00;11.60;;;;;;;-4.98;82.08;97930.74;107357;1270;45627;-73
2022/01/19 05:10:00;;;;;;;24.30;11.50;;;;;;;-5.01;82.15;97926.56;107447;1269;42895;-72
2022/01/19 05:15:19;;;;;;;20.00;10.90;;;;;;;-5.11;82.04;97926.09;107388;1268;42762;-73
2022/01/19 05:17:50;;;;;;;19.40;8.90;;;;;;;-5.12;82.30;97928.29;107357;1271;35772;-72
2022/01/19 05:20:21;;;;;;;22.80;12.40;;;;;;;-5.12;82.40;97920.40;107429;1270;31378;-73
2022/01/19 05:22:52;;;;;;;22.90;11.40;;;;;;;-5.14;82.57;97914.41;107323;1271;36986;-73
2022/01/19 05:25:23;;;;;;;20.60;11.40;;;;;;;-5.16;82.36;97911.42;107450;1269;37526;-72
2022/01/19 05:27:54;;;;;;;22.50;10.30;;;;;;;-5.17;82.31;97906.05;107472;1269;41302;-72
2022/01/19 05:30:25;;;;;;;17.50;10.40;;;;;;;-5.21;82.40;97904.02;107456;1270;35059;-72
2022/01/19 05:32:56;;;;;;;22.80;11.10;;;;;;;-5.22;82.59;97902.88;107470;1270;32958;-72
2022/01/19 05:35:27;;;;;;;14.60;8.90;;;;;;;-5.19;82.38;97894.14;107429;1269;40070;-72
2022/01/19 05:37:58;;;;;;;19.40;8.70;;;;;;;-5.15;82.62;97894.81;107456;1269;33861;-72
2022/01/19 05:40:29;;;;;;;17.10;8.50;;;;;;;-5.12;82.82;97894.13;107406;1269;43237;-73
2022/01/19 05:43:00;;;;;;;22.00;9.70;;;;;;;-5.08;82.81;97888.77;107459;1269;37828;-72
2022/01/19 05:45:31;;;;;;;18.20;8.90;;;;;;;-5.08;82.71;97885.15;107519;1269;35864;-72
2022/01/19 05:48:02;;;;;;;13.50;7.90;;;;;;;-5.06;82.59;97878.67;107448;1269;41779;-72
2022/01/19 05:50:33;;;;;;;16.00;9.50;;;;;;;-5.08;82.62;97875.70;107436;1269;38371;-72
2022/01/19 05:53:05;;;;;;;21.10;9.70;;;;;;;-5.08;82.91;97868.44;107466;1269;38636;-72
2022/01/19 05:55:37;;;;;;;12.80;7.90;;;;;;;-5.04;82.84;97867.93;107561;1269;39361;-72
2022/01/19 05:58:07;;;;;;;15.20;6.60;;;;;;;-5.03;82.94;97866.07;107535;1269;39057;-72
2022/01/19 06:00:38;;;;;;;15.60;8.80;;;;;;;-5.02;83.16;97860.61;107482;1269;40686;-72
2022/01/19 06:03:11;;;;;;;12.60;7.00;;;;;;;-5.02;83.21;97858.02;107395;1269;40260;-73
2022/01/19 06:05:42;;;;;;;11.50;6.90;;;;;;;-4.98;83.41;97857.15;107378;1271;40008;-73
2022/01/19 06:08:29;;;;;;;11.20;6.10;;;;;;;-4.93;83.41;97866.95;107415;1269;32481;-72
2022/01/19 06:11:00;;;;;;;16.80;8.10;;;;;;;-4.85;83.52;97859.16;107501;1269;36832;-72
2022/01/19 06:13:31;;;;;;;22.90;6.90;;;;;;;-4.83;83.24;97861.66;107458;1269;33423;-72
2022/01/19 06:16:02;;;;;;;18.90;6.90;;;;;;;-4.85;83.05;97856.18;107458;1269;42580;-72
2022/01/19 06:18:34;;;;;;;13.90;5.20;;;;;;;-4.84;82.97;97855.95;107370;1269;39398;-72
2022/01/19 06:21:05;;;;;;;10.80;6.90;;;;;;;-4.84;83.00;97854.77;107588;1270;32835;-72
2022/01/19 06:23:36;;;;;;;14.40;6.20;;;;;;;-4.85;82.95;97851.88;107402;1270;35367;-72
2022/01/19 06:26:07;;;;;;;17.00;7.40;;;;;;;-4.88;82.67;97850.83;107433;1269;44053;-72
2022/01/19 06:28:38;;;;;;;17.00;7.10;;;;;;;-4.91;82.93;97844.67;107459;1269;39484;-72
2022/01/19 06:31:09;;;;;;;16.60;7.10;;;;;;;-4.91;82.74;97847.45;107476;1269;45280;-73
2022/01/19 06:33:40;;;;;;;16.60;6.40;;;;;;;-4.94;82.78;97835.84;107381;1269;57126;-73
2022/01/19 06:36:11;;;;;;;17.20;6.60;;;;;;;-4.93;82.74;97835.64;107486;1270;32495;-72
2022/01/19 06:38:45;;;;;;;16.20;7.00;;;;;;;-4.94;82.66;97818.80;107353;1269;43932;-73
2022/01/19 06:41:16;;;;;;;16.00;5.80;;;;;;;-4.95;82.66;97811.84;107370;1270;40309;-71
2022/01/19 06:43:47;;;;;;;15.70;6.60;;;;;;;-4.94;82.75;97803.02;107380;1270;34777;-72
2022/01/19 06:46:18;;;;;;;17.50;6.30;;;;;;;-4.89;82.85;97793.84;107306;1270;34903;-72
2022/01/19 06:48:49;;;;;;;11.90;5.20;;;;;;;-4.84;82.84;97788.33;107433;1269;47289;-73
2022/01/19 06:51:20;;;;;;;19.40;7.90;;;;;;;-4.80;82.82;97785.92;107443;1269;35465;-73
2022/01/19 06:53:52;;;;;;;18.10;8.10;;;;;;;-4.72;82.70;97769.25;107331;1270;39800;-73
2022/01/19 06:56:24;;;;;;;15.10;7.40;;;;;;;-4.68;82.46;97779.52;107523;1270;37376;-73
2022/01/19 06:58:55;;;;;;;12.60;6.50;;;;;;;-4.54;82.58;97764.67;107487;1269;44071;-73
2022/01/19 07:01:31;;;;;;;18.90;7.30;;;;;;;-4.33;82.22;97778.34;107447;1269;39523;-73
2022/01/19 07:04:03;;;;;;;13.40;6.90;;;;;;;-4.10;81.60;97780.67;107388;1269;35213;-73
2022/01/19 07:06:34;;;;;;;13.00;5.30;;;;;;;-3.85;81.26;97774.30;107491;1269;38081;-73
2022/01/19 07:09:05;;;;;;;10.10;5.00;;;;;;;-3.61;80.50;97768.19;107439;1270;34360;-73
2022/01/19 07:11:36;;;;;;;15.60;6.20;;;;;;;-3.39;79.91;97771.08;107436;1269;36533;-73
2022/01/19 07:14:08;;;;;;;16.40;8.20;;;;;;;-3.14;79.37;97764.60;107456;1270;45907;-73
2022/01/19 07:16:39;;;;;;;15.60;8.00;;;;;;;-2.89;78.77;97776.31;107478;1269;30853;-73
2022/01/19 07:19:10;;;;;;;18.50;8.30;;;;;;;-2.64;77.91;97773.02;107453;1269;43419;-72
2022/01/19 07:21:41;;;;;;;15.20;7.80;;;;;;;-2.39;77.57;97770.44;107322;1270;46135;-73
2022/01/19 07:24:14;;;;;;;16.30;8.00;;;;;;;-2.07;76.77;97767.84;107376;1269;53425;-72
2022/01/19 07:26:45;;;;;;;14.50;7.60;;;;;;;-1.77;76.55;97760.45;107514;1269;33845;-72
2022/01/19 07:29:16;;;;;;;18.40;8.30;;;;;;;-1.39;76.10;97757.86;107454;1270;32581;-72
2022/01/19 07:31:47;;;;;;;16.80;8.20;;;;;;;-1.08;75.56;97750.48;107487;1270;37059;-72
2022/01/19 07:34:18;;;;;;;15.80;7.20;;;;;;;-0.86;74.91;97747.65;107402;1269;36151;-72
2022/01/19 07:36:49;;;;;;;13.30;7.40;;;;;;;-0.87;73.81;97747.43;107453;1270;40481;-72
2022/01/19 07:39:20;;;;;;;15.90;8.50;;;;;;;-0.90;73.06;97750.52;107368;1270;40979;-72
2022/01/19 07:41:53;;;;;;;16.80;6.70;;;;;;;-0.74;73.12;97750.59;107444;1269;37453;-72
2022/01/19 07:44:24;;;;;;;14.90;6.90;;;;;;;-0.54;72.02;97747.52;107528;1270;29817;-72
2022/01/19 07:46:55;;;;;;;12.70;6.50;;;;;;;-0.60;71.48;97750.98;107402;1269;41124;-72
2022/01/19 07:49:31;;;;;;;14.60;7.10;;;;;;;-0.48;71.41;97749.30;107397;1269;53023;-72
2022/01/19 07:52:02;;;;;;;14.00;7.70;;;;;;;-0.28;70.37;97747.64;107480;1269;31671;-72
2022/01/19 07:54:33;;;;;;;17.20;7.90;;;;;;;-0.20;69.82;97738.48;107448;1269;41854;-73
2022/01/19 07:57:05;;;;;;;15.60;8.10;;;;;;;-0.24;69.48;97738.11;107297;1269;47943;-72
2022/01/19 07:59:35;;;;;;;15.90;7.20;;;;;;;-0.24;69.83;97733.55;107479;1269;36979;-72
2022/01/19 08:02:06;;;;;;;14.40;7.00;;;;;;;-0.23;69.15;97731.48;107528;1269;36171;-72
2022/01/19 08:04:37;;;;;;;15.40;7.40;;;;;;;-0.29;68.66;97725.42;107547;1270;28030;-72
2022/01/19 08:07:09;;;;;;;14.80;7.10;;;;;;;-0.27;68.62;97717.64;107482;1270;38808;-72
2022/01/19 08:09:40;;;;;;;16.20;7.70;;;;;;;-0.24;68.24;97716.35;107505;1269;40828;-72
2022/01/19 08:12:12;;;;;;;13.70;6.40;;;;;;;-0.27;67.96;97716.79;107520;1270;39258;-73
2022/01/19 08:14:43;;;;;;;14.00;7.10;;;;;;;-0.30;67.79;97713.77;107450;1270;42331;-73
2022/01/19 08:17:14;;;;;;;17.20;7.40;;;;;;;-0.37;67.56;97709.70;107307;1269;39021;-73
2022/01/19 08:19:45;;;;;;;15.50;8.00;;;;;;;-0.25;67.31;97705.39;107353;1269;33728;-73
2022/01/19 08:22:16;;;;;;;13.30;6.60;;;;;;;-0.43;66.37;97704.88;107448;1269;33497;-73
2022/01/19 08:24:47;;;;;;;14.40;6.50;;;;;;;-0.36;66.32;97704.41;107469;1269;33423;-73
2022/01/19 08:27:18;;;;;;;12.50;7.40;;;;;;;-0.21;66.29;97701.10;107509;1270;34923;-72
2022/01/19 08:29:49;;;;;;;13.20;8.10;;;;;;;-0.21;65.44;97696.25;107424;1270;42604;-72
2022/01/19 08:32:20;;;;;;;17.70;7.80;;;;;;;-0.29;65.50;97688.63;107356;1269;34175;-72
2022/01/19 08:34:51;;;;;;;19.10;7.90;;;;;;;-0.33;65.82;97689.98;107469;1270;32396;-72
2022/01/19 08:37:22;;;;;;;14.70;7.50;;;;;;;-0.39;66.19;97688.11;107266;1272;45718;-73
2022/01/19 08:39:53;;;;;;;13.40;6.10;;;;;;;-0.38;66.01;97687.92;107371;1270;37398;-73
2022/01/19 08:42:25;;;;;;;11.70;6.80;;;;;;;-0.53;65.91;97680.52;107305;1269;31215;-73
2022/01/19 08:44:56;;;;;;;11.30;6.40;;;;;;;-0.79;65.79;97666.13;107293;1269;34811;-72
2022/01/19 08:47:27;;;;;;;13.30;7.00;;;;;;;-0.96;66.09;97668.27;107454;1269;34193;-73
2022/01/19 08:49:58;;;;;;;12.00;5.70;;;;;;;-0.95;66.57;97662.55;107413;1269;35200;-72
2022/01/19 08:52:29;;;;;;;10.90;5.30;;;;;;;-0.93;66.06;97659.09;107345;1269;38663;-72
2022/01/19 08:55:00;;;;;;;12.40;6.80;;;;;;;-0.99;66.09;97651.04;107480;1269;39892;-72
2022/01/19 08:57:32;;;;;;;13.70;7.20;;;;;;;-1.05;66.18;97652.15;107488;1270;36782;-72
2022/01/19 09:00:06;;;;;;;13.30;6.70;;;;;;;-0.95;66.28;97651.52;107389;1269;39036;-73
2022/01/19 09:02:36;;;;;;;16.00;7.60;;;;;;;-0.81;66.21;97650.69;107482;1270;46568;-73
2022/01/19 09:05:10;;;;;;;11.40;7.30;;;;;;;-0.70;66.22;97649.61;107441;1270;46930;-73
2022/01/19 09:07:43;;;;;;;14.80;7.90;;;;;;;-0.59;66.04;97642.59;107514;1269;42049;-73
2022/01/19 09:10:15;;;;;;;14.90;7.80;;;;;;;-0.47;65.86;97639.11;107334;1270;41702;-72
2022/01/19 09:12:46;;;;;;;16.00;6.90;;;;;;;-0.39;65.06;97636.40;107478;1268;33976;-72
2022/01/19 09:15:18;;;;;;;18.20;8.10;;;;;;;-0.35;64.79;97632.16;107511;1269;39752;-72
2022/01/19 09:17:49;;;;;;;16.30;7.90;;;;;;;-0.40;65.16;97626.95;107490;1269;34573;-72
2022/01/19 09:20:20;;;;;;;19.10;9.90;;;;;;;-0.39;64.83;97621.26;107534;1269;35998;-72
2022/01/19 09:22:50;;;;;;;18.20;9.30;;;;;;;-0.52;64.53;97620.63;107417;1270;40931;-73
2022/01/19 09:25:22;;;;;;;16.10;8.50;;;;;;;-0.63;64.93;97616.94;107428;1269;33986;-73
2022/01/19 09:27:53;;;;;;;12.70;7.10;;;;;;;-0.77;64.34;97619.04;107367;1269;32097;-73
2022/01/19 09:30:24;;;;;;;13.50;6.70;;;;;;;-0.72;64.75;97604.46;107488;1269;30793;-73
2022/01/19 09:33:06;;;;;;;16.10;7.90;;;;;;;-0.62;64.76;97600.13;107493;1269;36955;-72
2022/01/19 09:36:04;;;;;;;12.60;7.60;;;;;;;-0.47;64.77;97597.77;107503;1269;32398;-73
2022/01/19 09:38:38;;;;;;;13.80;6.70;;;;;;;-0.20;64.13;97593.03;107384;1270;30957;-72
2022/01/19 09:41:10;;;;;;;15.40;7.20;;;;;;;0.01;63.54;97589.18;107434;1269;36823;-72
2022/01/19 09:43:49;;;;;;;10.90;6.40;;;;;;;0.13;63.38;97591.77;107381;1270;30724;-72
2022/01/19 09:46:20;;;;;;;15.40;6.90;;;;;;;0.24;62.90;97590.22;107499;1269;33438;-73
2022/01/19 09:48:51;;;;;;;15.40;7.80;;;;;;;0.32;62.32;97582.19;107427;1269;40658;-73
2022/01/19 09:51:22;;;;;;;12.30;6.40;;;;;;;0.34;62.29;97579.43;107454;1269;38568;-73
2022/01/19 09:53:53;;;;;;;13.20;7.80;;;;;;;0.38;61.99;97579.16;107475;1269;35643;-73
2022/01/19 09:56:24;;;;;;;16.10;8.10;;;;;;;0.45;61.82;97566.23;107345;1272;34981;-73
2022/01/19 09:58:56;;;;;;;15.50;7.60;;;;;;;0.56;60.92;97571.52;107562;1269;31636;-72
2022/01/19 10:01:28;;;;;;;13.90;7.30;;;;;;;0.62;61.04;97563.69;107481;1269;34390;-72
2022/01/19 10:03:59;;;;;;;12.40;7.10;;;;;;;0.65;60.62;97553.94;107488;1269;33280;-72
2022/01/19 10:06:29;;;;;;;17.70;8.90;;;;;;;0.62;60.34;97550.96;107345;1270;42910;-72
2022/01/19 10:09:00;;;;;;;9.00;5.10;;;;;;;0.59;60.85;97547.66;107474;1269;35865;-72
2022/01/19 10:16:58;;;;;;;15.80;8.40;;;;;;;0.68;60.22;97542.07;107473;1269;36177;-72
2022/01/19 10:17:20;;;;;;;11.90;6.10;;;;;;;0.73;59.54;97531.40;107520;1269;30321;-72
2022/01/19 10:19:52;;;;;;;14.10;6.20;;;;;;;0.67;59.02;97522.84;107413;1270;33208;-73
2022/01/19 10:22:25;;;;;;;8.80;5.80;;;;;;;0.70;59.38;97525.06;107472;1269;31799;-73
2022/01/19 10:24:57;;;;;;;14.60;7.60;;;;;;;0.73;58.49;97520.69;107460;1269;28066;-72
2022/01/19 10:27:37;;;;;;;14.90;7.10;;;;;;;0.75;58.18;97506.52;107437;1270;31212;-72
2022/01/19 10:30:18;;;;;;;11.60;6.90;;;;;;;0.81;57.87;97499.83;107535;1270;30581;-72
2022/01/19 10:32:54;;;;;;;17.90;7.90;;;;;;;0.88;57.65;97489.87;107561;1269;32388;-72
2022/01/19 10:35:29;;;;;;;15.80;7.70;;;;;;;0.99;57.69;97490.27;107457;1269;35439;-73
2022/01/19 10:38:16;;;;;;;17.30;7.20;;;;;;;1.09;57.57;97472.58;107400;1269;42441;-72
2022/01/19 10:41:12;;;;;;;12.80;6.50;;;;;;;1.17;57.48;97475.86;107549;1269;40356;-72
2022/01/19 10:43:48;;;;;;;16.20;6.90;;;;;;;1.29;57.15;97462.59;107413;1269;45007;-72
2022/01/19 10:46:34;;;;;;;14.50;7.00;;;;;;;1.36;56.75;97460.34;107501;1270;31187;-73
2022/01/19 10:49:07;;;;;;;16.60;7.60;;;;;;;1.40;56.05;97441.38;107410;1269;36245;-73
2022/01/19 10:51:45;;;;;;;12.70;7.00;;;;;;;1.49;56.50;97437.94;107507;1269;28334;-73
2022/01/19 10:54:19;;;;;;;12.10;7.30;;;;;;;1.65;56.71;97434.45;107555;1270;29092;-73
2022/01/19 10:56:58;;;;;;;11.40;6.80;;;;;;;1.76;56.18;97422.86;107464;1271;35717;-73
2022/01/19 10:59:30;;;;;;;15.50;8.20;;;;;;;1.88;56.35;97423.02;107365;1271;42213;-73
2022/01/19 11:02:03;;;;;;;15.90;8.20;;;;;;;2.05;55.71;97409.96;107409;1270;38638;-73
2022/01/19 11:04:35;;;;;;;12.00;5.90;;;;;;;2.17;55.31;97413.77;107504;1269;30711;-73
2022/01/19 11:07:08;;;;;;;14.90;7.30;;;;;;;2.26;55.29;97409.59;107474;1270;32972;-73
2022/01/19 11:09:45;;;;;;;15.90;7.30;;;;;;;2.39;55.29;97416.76;107392;1270;30183;-73
2022/01/19 11:12:19;;;;;;;10.30;6.10;;;;;;;2.45;54.71;97412.42;107463;1269;38001;-72
2022/01/19 11:14:50;;;;;;;9.40;5.60;;;;;;;2.45;54.75;97411.95;107447;1270;41047;-72
2022/01/19 11:17:21;;;;;;;15.40;6.90;;;;;;;2.51;54.26;97400.36;107451;1270;36977;-72
2022/01/19 11:19:53;;;;;;;14.30;7.20;;;;;;;2.50;53.81;97403.34;107412;1270;56805;-73
2022/01/19 11:22:37;;;;;;;10.60;5.50;;;;;;;2.55;53.59;97389.45;107484;1270;33871;-73
2022/01/19 11:25:17;;;;;;;13.70;6.90;;;;;;;2.51;53.54;97383.17;107451;1271;33216;-73
2022/01/19 11:27:50;;;;;;;15.80;7.60;;;;;;;2.52;53.29;97374.79;107579;1269;35638;-72
2022/01/19 11:30:25;;;;;;;13.30;6.50;;;;;;;2.53;53.51;97371.38;107491;1269;31138;-73
2022/01/19 11:33:24;;;;;;;14.00;6.60;;;;;;;2.55;53.06;97371.18;107463;1269;32459;-73
2022/01/19 11:35:57;;;;;;;13.20;6.00;;;;;;;2.55;53.15;97362.02;107528;1270;30925;-73
2022/01/19 11:38:39;;;;;;;10.30;5.60;;;;;;;2.52;53.22;97359.98;107500;1270;39302;-72
2022/01/19 11:41:38;;;;;;;9.70;5.90;;;;;;;2.48;53.35;97347.07;107416;1270;34036;-72
2022/01/19 11:44:13;;;;;;;16.00;6.90;;;;;;;2.54;53.66;97349.06;107345;1269;39200;-72
2022/01/19 11:46:46;;;;;;;17.20;7.90;;;;;;;2.59;53.77;97339.34;107444;1271;45870;-72
2022/01/19 11:49:39;;;;;;;11.50;5.50;;;;;;;2.60;53.50;97335.50;107592;1269;32885;-72
2022/01/19 11:52:10;;;;;;;8.10;4.40;;;;;;;2.57;53.72;97333.67;107440;1271;32830;-72
2022/01/19 11:54:41;;;;;;;8.60;5.00;;;;;;;2.65;53.34;97322.79;107532;1271;33730;-72
2022/01/19 11:57:14;;;;;;;11.40;5.30;;;;;;;2.70;53.57;97318.79;107541;1271;43422;-72
2022/01/19 12:00:07;;;;;;;10.10;5.40;;;;;;;2.74;53.08;97312.02;107561;1269;42862;-72
2022/01/19 12:02:44;;;;;;;13.60;6.80;;;;;;;2.82;53.17;97302.27;107460;1269;37251;-72
2022/01/19 12:05:36;;;;;;;11.80;7.10;;;;;;;2.97;53.74;97293.21;107429;1270;32847;-72
2022/01/19 12:08:32;;;;;;;11.40;6.50;;;;;;;3.08;52.96;97287.64;107492;1269;42750;-72
2022/01/19 12:11:14;;;;;;;12.70;6.50;;;;;;;3.11;52.63;97275.39;107582;1270;38342;-72
2022/01/19 12:16:51;;;;;;;11.30;5.50;;;;;;;3.17;52.23;97275.65;107395;1270;36726;-72
2022/01/19 12:19:27;;;;;;;13.80;7.60;;;;;;;3.20;52.52;97276.35;107387;1271;35241;-73
2022/01/19 12:22:06;;;;;;;10.00;5.60;;;;;;;3.26;52.88;97280.87;107398;1271;33179;-73
2022/01/19 12:24:41;;;;;;;12.30;6.20;;;;;;;3.30;52.52;97278.65;107402;1271;35987;-72
2022/01/19 12:27:24;;;;;;;14.10;7.60;;;;;;;3.33;52.38;97270.02;107405;1271;28090;-72
2022/01/19 12:30:06;;;;;;;14.20;7.20;;;;;;;3.36;52.70;97273.30;107424;1269;32632;-72
2022/01/19 12:32:53;;;;;;;14.90;6.60;;;;;;;3.40;53.00;97271.47;107623;1270;37108;-72
2022/01/19 12:35:31;;;;;;;15.60;7.70;;;;;;;3.37;53.44;97272.09;107482;1271;39055;-73
2022/01/19 12:38:08;;;;;;;14.50;6.50;;;;;;;3.36;53.33;97278.02;107441;1270;38907;-72
2022/01/19 12:40:45;;;;;;;14.10;6.50;;;;;;;3.35;53.51;97273.80;107404;1270;37225;-72
2022/01/19 12:43:38;;;;;;;13.60;7.50;;;;;;;3.28;53.74;97270.00;107521;1270;38133;-72
2022/01/19 12:46:10;;;;;;;16.70;7.60;;;;;;;3.34;54.09;97263.13;107484;1270;41993;-72
2022/01/19 12:48:47;;;;;;;12.40;6.70;;;;;;;3.34;53.71;97259.13;107481;1270;34929;-72
2022/01/19 12:51:40;;;;;;;11.50;6.90;;;;;;;3.33;53.67;97257.29;107537;1270;39437;-72
2022/01/19 12:54:16;;;;;;;17.00;8.10;;;;;;;3.37;53.66;97252.12;107412;1271;37967;-72
2022/01/19 12:56:57;;;;;;;13.20;6.40;;;;;;;3.42;53.92;97247.45;107541;1270;40627;-72